sensor_id;sensor_type;location;lat;lon;timestamp;P1;durP1;ratioP1;P2;durP2;ratioP2
71869;SDS011;59739;47.696;11.746;2023-01-08T00:01:04;1.88;;;1.10;;
71869;SDS011;59739;47.696;11.746;2023-01-08T00:03:32;2.03;;;1.20;;
71869;SDS011;59739;47.696;11.746;2023-01-08T00:06:00;1.65;;;1.00;;
71869;SDS011;59739;47.696;11.746;2023-01-08T00:08:32;1.33;;;1.13;;
71869;SDS011;59739;47.696;11.746;2023-01-08T00:10:58;1.00;;;0.80;;
71869;SDS011;59739;47.696;11.746;2023-01-08T00:13:24;1.33;;;0.70;;
71869;SDS011;59739;47.696;11.746;2023-01-08T00:15:50;0.88;;;0.88;;
71869;SDS011;59739;47.696;11.746;2023-01-08T00:18:16;1.20;;;0.80;;
71869;SDS011;59739;47.696;11.746;2023-01-08T00:20:43;1.58;;;1.10;;
71869;SDS011;59739;47.696;11.746;2023-01-08T00:23:11;2.13;;;1.02;;
71869;SDS011;59739;47.696;11.746;2023-01-08T00:25:41;1.95;;;1.10;;
71869;SDS011;59739;47.696;11.746;2023-01-08T00:28:07;1.45;;;0.90;;
71869;SDS011;59739;47.696;11.746;2023-01-08T00:30:33;1.08;;;0.98;;
71869;SDS011;59739;47.696;11.746;2023-01-08T00:32:59;0.73;;;0.73;;
71869;SDS011;59739;47.696;11.746;2023-01-08T00:35:25;1.48;;;1.02;;
71869;SDS011;59739;47.696;11.746;2023-01-08T00:37:51;0.98;;;0.90;;
71869;SDS011;59739;47.696;11.746;2023-01-08T00:40:17;2.75;;;1.20;;
71869;SDS011;59739;47.696;11.746;2023-01-08T00:42:43;0.70;;;0.70;;
71869;SDS011;59739;47.696;11.746;2023-01-08T00:45:09;0.70;;;0.70;;
71869;SDS011;59739;47.696;11.746;2023-01-08T00:47:35;1.73;;;0.75;;
71869;SDS011;59739;47.696;11.746;2023-01-08T00:50:01;0.60;;;0.60;;
71869;SDS011;59739;47.696;11.746;2023-01-08T00:52:27;1.77;;;0.85;;
71869;SDS011;59739;47.696;11.746;2023-01-08T00:54:53;1.20;;;1.08;;
71869;SDS011;59739;47.696;11.746;2023-01-08T00:57:19;1.23;;;0.98;;
71869;SDS011;59739;47.696;11.746;2023-01-08T00:59:45;1.13;;;0.88;;
71869;SDS011;59739;47.696;11.746;2023-01-08T01:02:11;1.52;;;0.90;;
71869;SDS011;59739;47.696;11.746;2023-01-08T01:04:37;1.00;;;0.90;;
71869;SDS011;59739;47.696;11.746;2023-01-08T01:07:03;1.23;;;0.80;;
71869;SDS011;59739;47.696;11.746;2023-01-08T01:09:29;0.95;;;0.90;;
71869;SDS011;59739;47.696;11.746;2023-01-08T01:11:55;2.08;;;1.10;;
71869;SDS011;59739;47.696;11.746;2023-01-08T01:14:21;1.65;;;0.88;;
71869;SDS011;59739;47.696;11.746;2023-01-08T01:16:47;0.70;;;0.70;;
71869;SDS011;59739;47.696;11.746;2023-01-08T01:19:14;1.98;;;0.90;;
71869;SDS011;59739;47.696;11.746;2023-01-08T01:21:41;0.93;;;0.77;;
71869;SDS011;59739;47.696;11.746;2023-01-08T01:24:09;0.93;;;0.60;;
71869;SDS011;59739;47.696;11.746;2023-01-08T01:26:37;1.65;;;0.80;;
71869;SDS011;59739;47.696;11.746;2023-01-08T01:29:03;0.95;;;0.70;;
71869;SDS011;59739;47.696;11.746;2023-01-08T01:31:29;0.50;;;0.47;;
71869;SDS011;59739;47.696;11.746;2023-01-08T01:33:56;2.38;;;0.70;;
71869;SDS011;59739;47.696;11.746;2023-01-08T01:36:22;0.70;;;0.70;;
71869;SDS011;59739;47.696;11.746;2023-01-08T01:38:51;0.80;;;0.60;;
71869;SDS011;59739;47.696;11.746;2023-01-08T01:41:26;0.65;;;0.60;;
71869;SDS011;59739;47.696;11.746;2023-01-08T01:43:56;0.60;;;0.60;;
71869;SDS011;59739;47.696;11.746;2023-01-08T01:49:09;0.75;;;0.60;;
71869;SDS011;59739;47.696;11.746;2023-01-08T01:51:40;0.95;;;0.60;;
71869;SDS011;59739;47.696;11.746;2023-01-08T01:54:12;0.82;;;0.63;;
71869;SDS011;59739;47.696;11.746;2023-01-08T01:56:38;0.90;;;0.75;;
71869;SDS011;59739;47.696;11.746;2023-01-08T01:59:06;0.68;;;0.65;;
71869;SDS011;59739;47.696;11.746;2023-01-08T02:01:32;0.63;;;0.60;;
71869;SDS011;59739;47.696;11.746;2023-01-08T02:03:58;1.52;;;0.75;;
71869;SDS011;59739;47.696;11.746;2023-01-08T02:06:28;0.80;;;0.65;;
71869;SDS011;59739;47.696;11.746;2023-01-08T02:12:10;0.93;;;0.63;;
71869;SDS011;59739;47.696;11.746;2023-01-08T02:14:52;0.68;;;0.68;;
71869;SDS011;59739;47.696;11.746;2023-01-08T02:17:43;1.13;;;0.60;;
71869;SDS011;59739;47.696;11.746;2023-01-08T02:20:18;1.85;;;0.70;;
71869;SDS011;59739;47.696;11.746;2023-01-08T02:28:39;0.60;;;0.60;;
71869;SDS011;59739;47.696;11.746;2023-01-08T02:31:15;0.75;;;0.65;;
71869;SDS011;59739;47.696;11.746;2023-01-08T02:33:43;1.13;;;0.68;;
71869;SDS011;59739;47.696;11.746;2023-01-08T02:41:46;0.80;;;0.70;;
71869;SDS011;59739;47.696;11.746;2023-01-08T02:53:02;0.43;;;0.43;;
71869;SDS011;59739;47.696;11.746;2023-01-08T02:55:34;0.82;;;0.70;;
71869;SDS011;59739;47.696;11.746;2023-01-08T02:58:02;0.40;;;0.40;;
71869;SDS011;59739;47.696;11.746;2023-01-08T03:00:30;0.80;;;0.80;;
71869;SDS011;59739;47.696;11.746;2023-01-08T03:03:16;1.27;;;0.70;;
71869;SDS011;59739;47.696;11.746;2023-01-08T03:05:55;2.08;;;0.80;;
71869;SDS011;59739;47.696;11.746;2023-01-08T03:08:49;0.80;;;0.65;;
71869;SDS011;59739;47.696;11.746;2023-01-08T03:11:18;0.80;;;0.60;;
71869;SDS011;59739;47.696;11.746;2023-01-08T03:13:55;0.75;;;0.63;;
71869;SDS011;59739;47.696;11.746;2023-01-08T03:16:38;1.17;;;0.60;;
71869;SDS011;59739;47.696;11.746;2023-01-08T03:19:30;0.82;;;0.65;;
71869;SDS011;59739;47.696;11.746;2023-01-08T03:22:21;1.48;;;0.80;;
71869;SDS011;59739;47.696;11.746;2023-01-08T03:24:48;0.57;;;0.57;;
71869;SDS011;59739;47.696;11.746;2023-01-08T03:27:19;0.60;;;0.60;;
71869;SDS011;59739;47.696;11.746;2023-01-08T03:29:50;1.10;;;0.70;;
71869;SDS011;59739;47.696;11.746;2023-01-08T03:32:19;0.60;;;0.60;;
71869;SDS011;59739;47.696;11.746;2023-01-08T03:34:48;1.58;;;0.60;;
71869;SDS011;59739;47.696;11.746;2023-01-08T03:37:17;1.10;;;0.80;;
71869;SDS011;59739;47.696;11.746;2023-01-08T03:42:19;0.73;;;0.60;;
71869;SDS011;59739;47.696;11.746;2023-01-08T03:44:46;0.70;;;0.70;;
71869;SDS011;59739;47.696;11.746;2023-01-08T03:47:12;1.73;;;0.85;;
71869;SDS011;59739;47.696;11.746;2023-01-08T03:49:40;0.60;;;0.50;;
71869;SDS011;59739;47.696;11.746;2023-01-08T03:52:07;0.65;;;0.65;;
71869;SDS011;59739;47.696;11.746;2023-01-08T03:54:34;0.50;;;0.50;;
71869;SDS011;59739;47.696;11.746;2023-01-08T03:57:01;2.92;;;0.60;;
71869;SDS011;59739;47.696;11.746;2023-01-08T03:59:27;0.38;;;0.38;;
71869;SDS011;59739;47.696;11.746;2023-01-08T04:01:53;0.55;;;0.55;;
71869;SDS011;59739;47.696;11.746;2023-01-08T04:04:19;1.55;;;0.82;;
71869;SDS011;59739;47.696;11.746;2023-01-08T04:06:45;0.60;;;0.60;;
71869;SDS011;59739;47.696;11.746;2023-01-08T04:09:11;0.68;;;0.60;;
71869;SDS011;59739;47.696;11.746;2023-01-08T04:11:37;0.70;;;0.60;;
71869;SDS011;59739;47.696;11.746;2023-01-08T04:14:03;0.63;;;0.60;;
71869;SDS011;59739;47.696;11.746;2023-01-08T04:16:28;0.63;;;0.60;;
71869;SDS011;59739;47.696;11.746;2023-01-08T04:18:55;1.73;;;0.68;;
71869;SDS011;59739;47.696;11.746;2023-01-08T04:21:21;0.40;;;0.40;;
71869;SDS011;59739;47.696;11.746;2023-01-08T04:23:47;0.63;;;0.50;;
71869;SDS011;59739;47.696;11.746;2023-01-08T04:26:13;0.63;;;0.43;;
71869;SDS011;59739;47.696;11.746;2023-01-08T04:28:39;0.80;;;0.60;;
71869;SDS011;59739;47.696;11.746;2023-01-08T04:31:05;0.90;;;0.60;;
71869;SDS011;59739;47.696;11.746;2023-01-08T04:33:32;0.70;;;0.60;;
71869;SDS011;59739;47.696;11.746;2023-01-08T04:35:58;0.50;;;0.50;;
71869;SDS011;59739;47.696;11.746;2023-01-08T04:38:24;0.80;;;0.57;;
71869;SDS011;59739;47.696;11.746;2023-01-08T04:40:55;0.98;;;0.68;;
71869;SDS011;59739;47.696;11.746;2023-01-08T04:43:25;0.40;;;0.40;;
71869;SDS011;59739;47.696;11.746;2023-01-08T04:45:52;0.50;;;0.50;;
71869;SDS011;59739;47.696;11.746;2023-01-08T04:48:23;0.65;;;0.65;;
71869;SDS011;59739;47.696;11.746;2023-01-08T04:50:49;0.50;;;0.50;;
71869;SDS011;59739;47.696;11.746;2023-01-08T04:53:15;0.50;;;0.40;;
71869;SDS011;59739;47.696;11.746;2023-01-08T04:55:41;1.05;;;0.60;;
71869;SDS011;59739;47.696;11.746;2023-01-08T04:58:07;1.52;;;0.90;;
71869;SDS011;59739;47.696;11.746;2023-01-08T05:00:33;0.70;;;0.70;;
71869;SDS011;59739;47.696;11.746;2023-01-08T05:02:59;0.68;;;0.68;;
71869;SDS011;59739;47.696;11.746;2023-01-08T05:05:25;0.57;;;0.50;;
71869;SDS011;59739;47.696;11.746;2023-01-08T05:07:52;1.52;;;0.70;;
71869;SDS011;59739;47.696;11.746;2023-01-08T05:10:18;0.68;;;0.50;;
71869;SDS011;59739;47.696;11.746;2023-01-08T05:12:44;1.58;;;0.60;;
71869;SDS011;59739;47.696;11.746;2023-01-08T05:15:10;1.27;;;0.70;;
71869;SDS011;59739;47.696;11.746;2023-01-08T05:17:36;0.95;;;0.73;;
71869;SDS011;59739;47.696;11.746;2023-01-08T05:20:02;0.77;;;0.70;;
71869;SDS011;59739;47.696;11.746;2023-01-08T05:22:28;0.60;;;0.52;;
71869;SDS011;59739;47.696;11.746;2023-01-08T05:24:54;1.05;;;0.90;;
71869;SDS011;59739;47.696;11.746;2023-01-08T05:27:20;0.63;;;0.63;;
71869;SDS011;59739;47.696;11.746;2023-01-08T05:29:46;0.70;;;0.70;;
71869;SDS011;59739;47.696;11.746;2023-01-08T05:32:13;0.70;;;0.70;;
71869;SDS011;59739;47.696;11.746;2023-01-08T05:34:42;1.02;;;0.70;;
71869;SDS011;59739;47.696;11.746;2023-01-08T05:37:09;0.70;;;0.70;;
71869;SDS011;59739;47.696;11.746;2023-01-08T05:39:35;0.60;;;0.50;;
71869;SDS011;59739;47.696;11.746;2023-01-08T05:42:02;0.63;;;0.50;;
71869;SDS011;59739;47.696;11.746;2023-01-08T05:44:28;1.27;;;0.80;;
71869;SDS011;59739;47.696;11.746;2023-01-08T05:46:54;0.80;;;0.80;;
71869;SDS011;59739;47.696;11.746;2023-01-08T05:49:22;0.90;;;0.70;;
71869;SDS011;59739;47.696;11.746;2023-01-08T05:51:48;0.90;;;0.60;;
71869;SDS011;59739;47.696;11.746;2023-01-08T05:54:15;0.60;;;0.50;;
71869;SDS011;59739;47.696;11.746;2023-01-08T05:56:41;0.95;;;0.60;;
71869;SDS011;59739;47.696;11.746;2023-01-08T05:59:11;0.73;;;0.70;;
71869;SDS011;59739;47.696;11.746;2023-01-08T06:01:37;0.65;;;0.60;;
71869;SDS011;59739;47.696;11.746;2023-01-08T06:04:04;0.80;;;0.60;;
71869;SDS011;59739;47.696;11.746;2023-01-08T06:06:30;0.80;;;0.57;;
71869;SDS011;59739;47.696;11.746;2023-01-08T06:08:56;0.95;;;0.50;;
71869;SDS011;59739;47.696;11.746;2023-01-08T06:11:22;0.80;;;0.70;;
71869;SDS011;59739;47.696;11.746;2023-01-08T06:13:48;0.90;;;0.80;;
71869;SDS011;59739;47.696;11.746;2023-01-08T06:16:14;0.70;;;0.70;;
71869;SDS011;59739;47.696;11.746;2023-01-08T06:18:41;6.35;;;3.08;;
71869;SDS011;59739;47.696;11.746;2023-01-08T06:21:07;1.83;;;1.17;;
71869;SDS011;59739;47.696;11.746;2023-01-08T06:23:33;1.13;;;0.90;;
71869;SDS011;59739;47.696;11.746;2023-01-08T06:26:00;1.55;;;1.02;;
71869;SDS011;59739;47.696;11.746;2023-01-08T06:28:28;0.80;;;0.80;;
71869;SDS011;59739;47.696;11.746;2023-01-08T06:30:55;0.90;;;0.70;;
71869;SDS011;59739;47.696;11.746;2023-01-08T06:33:23;1.00;;;0.77;;
71869;SDS011;59739;47.696;11.746;2023-01-08T06:35:49;1.33;;;0.90;;
71869;SDS011;59739;47.696;11.746;2023-01-08T06:38:15;1.13;;;0.80;;
71869;SDS011;59739;47.696;11.746;2023-01-08T06:40:45;1.08;;;0.88;;
71869;SDS011;59739;47.696;11.746;2023-01-08T06:43:12;1.00;;;0.60;;
71869;SDS011;59739;47.696;11.746;2023-01-08T06:45:38;1.00;;;0.80;;
71869;SDS011;59739;47.696;11.746;2023-01-08T06:48:05;2.40;;;0.82;;
71869;SDS011;59739;47.696;11.746;2023-01-08T06:50:32;1.70;;;0.90;;
71869;SDS011;59739;47.696;11.746;2023-01-08T06:52:59;0.90;;;0.80;;
71869;SDS011;59739;47.696;11.746;2023-01-08T06:55:25;1.05;;;0.80;;
71869;SDS011;59739;47.696;11.746;2023-01-08T06:57:55;0.90;;;0.70;;
71869;SDS011;59739;47.696;11.746;2023-01-08T07:00:22;1.27;;;1.00;;
71869;SDS011;59739;47.696;11.746;2023-01-08T07:02:51;1.42;;;1.00;;
71869;SDS011;59739;47.696;11.746;2023-01-08T07:05:17;0.85;;;0.85;;
71869;SDS011;59739;47.696;11.746;2023-01-08T07:07:44;1.73;;;1.05;;
71869;SDS011;59739;47.696;11.746;2023-01-08T07:10:10;1.58;;;1.20;;
71869;SDS011;59739;47.696;11.746;2023-01-08T07:12:36;1.60;;;0.95;;
71869;SDS011;59739;47.696;11.746;2023-01-08T07:15:02;1.08;;;0.90;;
71869;SDS011;59739;47.696;11.746;2023-01-08T07:17:30;1.50;;;0.90;;
71869;SDS011;59739;47.696;11.746;2023-01-08T07:19:57;1.67;;;1.00;;
71869;SDS011;59739;47.696;11.746;2023-01-08T07:22:23;1.45;;;0.93;;
71869;SDS011;59739;47.696;11.746;2023-01-08T07:24:52;1.75;;;1.05;;
71869;SDS011;59739;47.696;11.746;2023-01-08T07:27:18;1.42;;;0.90;;
71869;SDS011;59739;47.696;11.746;2023-01-08T07:29:44;2.35;;;0.90;;
71869;SDS011;59739;47.696;11.746;2023-01-08T07:32:10;1.08;;;0.90;;
71869;SDS011;59739;47.696;11.746;2023-01-08T07:34:36;1.73;;;1.08;;
71869;SDS011;59739;47.696;11.746;2023-01-08T07:37:02;1.67;;;1.10;;
71869;SDS011;59739;47.696;11.746;2023-01-08T07:39:28;1.70;;;1.08;;
71869;SDS011;59739;47.696;11.746;2023-01-08T07:41:55;1.60;;;0.88;;
71869;SDS011;59739;47.696;11.746;2023-01-08T07:44:21;1.13;;;0.70;;
71869;SDS011;59739;47.696;11.746;2023-01-08T07:46:47;2.10;;;1.13;;
71869;SDS011;59739;47.696;11.746;2023-01-08T07:49:13;1.00;;;0.80;;
71869;SDS011;59739;47.696;11.746;2023-01-08T07:51:39;1.05;;;0.85;;
71869;SDS011;59739;47.696;11.746;2023-01-08T07:54:05;1.77;;;1.10;;
71869;SDS011;59739;47.696;11.746;2023-01-08T07:56:31;2.30;;;1.08;;
71869;SDS011;59739;47.696;11.746;2023-01-08T07:58:57;1.95;;;0.90;;
71869;SDS011;59739;47.696;11.746;2023-01-08T08:01:23;1.30;;;1.00;;
71869;SDS011;59739;47.696;11.746;2023-01-08T08:03:50;1.77;;;0.98;;
71869;SDS011;59739;47.696;11.746;2023-01-08T08:06:16;2.05;;;1.30;;
71869;SDS011;59739;47.696;11.746;2023-01-08T08:08:42;1.75;;;1.02;;
71869;SDS011;59739;47.696;11.746;2023-01-08T08:11:09;3.47;;;1.60;;
71869;SDS011;59739;47.696;11.746;2023-01-08T08:13:35;1.95;;;1.40;;
71869;SDS011;59739;47.696;11.746;2023-01-08T08:16:02;1.40;;;0.82;;
71869;SDS011;59739;47.696;11.746;2023-01-08T08:18:29;1.58;;;0.82;;
71869;SDS011;59739;47.696;11.746;2023-01-08T08:20:55;1.40;;;1.00;;
71869;SDS011;59739;47.696;11.746;2023-01-08T08:23:22;1.67;;;0.93;;
71869;SDS011;59739;47.696;11.746;2023-01-08T08:25:48;1.10;;;1.00;;
71869;SDS011;59739;47.696;11.746;2023-01-08T08:28:15;1.67;;;0.80;;
71869;SDS011;59739;47.696;11.746;2023-01-08T08:30:42;1.30;;;0.90;;
71869;SDS011;59739;47.696;11.746;2023-01-08T08:33:10;1.42;;;0.93;;
71869;SDS011;59739;47.696;11.746;2023-01-08T08:35:37;1.23;;;1.10;;
71869;SDS011;59739;47.696;11.746;2023-01-08T08:38:03;1.80;;;1.02;;
71869;SDS011;59739;47.696;11.746;2023-01-08T08:40:30;1.98;;;1.48;;
71869;SDS011;59739;47.696;11.746;2023-01-08T08:42:57;1.20;;;0.80;;
71869;SDS011;59739;47.696;11.746;2023-01-08T08:45:25;1.50;;;1.13;;
71869;SDS011;59739;47.696;11.746;2023-01-08T08:47:52;1.20;;;1.10;;
71869;SDS011;59739;47.696;11.746;2023-01-08T08:50:18;1.50;;;1.23;;
71869;SDS011;59739;47.696;11.746;2023-01-08T08:52:45;2.10;;;1.50;;
71869;SDS011;59739;47.696;11.746;2023-01-08T08:55:13;2.55;;;1.50;;
71869;SDS011;59739;47.696;11.746;2023-01-08T08:57:41;3.25;;;2.00;;
71869;SDS011;59739;47.696;11.746;2023-01-08T09:00:09;3.95;;;1.80;;
71869;SDS011;59739;47.696;11.746;2023-01-08T09:02:36;2.80;;;1.50;;
71869;SDS011;59739;47.696;11.746;2023-01-08T09:05:03;2.10;;;1.40;;
71869;SDS011;59739;47.696;11.746;2023-01-08T09:07:29;2.47;;;1.80;;
71869;SDS011;59739;47.696;11.746;2023-01-08T09:09:55;4.93;;;1.98;;
71869;SDS011;59739;47.696;11.746;2023-01-08T09:12:21;3.58;;;2.00;;
71869;SDS011;59739;47.696;11.746;2023-01-08T09:14:47;2.15;;;1.63;;
71869;SDS011;59739;47.696;11.746;2023-01-08T09:17:15;2.25;;;1.70;;
71869;SDS011;59739;47.696;11.746;2023-01-08T09:19:42;2.88;;;2.10;;
71869;SDS011;59739;47.696;11.746;2023-01-08T09:22:08;4.10;;;2.53;;
71869;SDS011;59739;47.696;11.746;2023-01-08T09:24:34;5.55;;;3.03;;
71869;SDS011;59739;47.696;11.746;2023-01-08T09:27:00;3.05;;;1.83;;
71869;SDS011;59739;47.696;11.746;2023-01-08T09:29:26;1.88;;;1.60;;
71869;SDS011;59739;47.696;11.746;2023-01-08T09:31:52;3.15;;;1.75;;
71869;SDS011;59739;47.696;11.746;2023-01-08T09:34:18;2.13;;;1.80;;
71869;SDS011;59739;47.696;11.746;2023-01-08T09:36:44;4.25;;;2.95;;
71869;SDS011;59739;47.696;11.746;2023-01-08T09:39:09;2.58;;;1.90;;
71869;SDS011;59739;47.696;11.746;2023-01-08T09:41:37;1.85;;;1.48;;
71869;SDS011;59739;47.696;11.746;2023-01-08T09:44:09;1.83;;;1.42;;
71869;SDS011;59739;47.696;11.746;2023-01-08T09:46:41;2.38;;;1.30;;
71869;SDS011;59739;47.696;11.746;2023-01-08T09:49:10;2.45;;;1.40;;
71869;SDS011;59739;47.696;11.746;2023-01-08T09:51:44;1.77;;;1.23;;
71869;SDS011;59739;47.696;11.746;2023-01-08T09:54:12;1.83;;;1.27;;
71869;SDS011;59739;47.696;11.746;2023-01-08T09:56:41;2.55;;;1.15;;
71869;SDS011;59739;47.696;11.746;2023-01-08T09:59:09;2.03;;;1.30;;
71869;SDS011;59739;47.696;11.746;2023-01-08T10:06:56;1.83;;;1.20;;
71869;SDS011;59739;47.696;11.746;2023-01-08T10:09:46;2.67;;;1.92;;
71869;SDS011;59739;47.696;11.746;2023-01-08T10:12:19;2.60;;;2.20;;
71869;SDS011;59739;47.696;11.746;2023-01-08T10:14:52;2.42;;;1.70;;
71869;SDS011;59739;47.696;11.746;2023-01-08T10:17:41;4.13;;;1.95;;
71869;SDS011;59739;47.696;11.746;2023-01-08T10:20:21;2.55;;;1.60;;
71869;SDS011;59739;47.696;11.746;2023-01-08T10:22:49;2.22;;;1.27;;
71869;SDS011;59739;47.696;11.746;2023-01-08T10:25:21;2.10;;;1.53;;
71869;SDS011;59739;47.696;11.746;2023-01-08T10:27:51;2.13;;;1.33;;
71869;SDS011;59739;47.696;11.746;2023-01-08T10:30:37;2.20;;;1.13;;
71869;SDS011;59739;47.696;11.746;2023-01-08T10:33:05;2.70;;;1.33;;
71869;SDS011;59739;47.696;11.746;2023-01-08T10:35:41;8.20;;;1.75;;
71869;SDS011;59739;47.696;11.746;2023-01-08T10:38:35;4.88;;;1.67;;
71869;SDS011;59739;47.696;11.746;2023-01-08T10:41:20;3.78;;;1.60;;
71869;SDS011;59739;47.696;11.746;2023-01-08T10:43:57;4.22;;;1.48;;
71869;SDS011;59739;47.696;11.746;2023-01-08T10:46:26;6.68;;;1.65;;
71869;SDS011;59739;47.696;11.746;2023-01-08T10:48:57;2.10;;;1.60;;
71869;SDS011;59739;47.696;11.746;2023-01-08T10:51:27;4.53;;;1.92;;
71869;SDS011;59739;47.696;11.746;2023-01-08T10:53:59;2.10;;;1.30;;
71869;SDS011;59739;47.696;11.746;2023-01-08T10:56:42;2.75;;;1.60;;
71869;SDS011;59739;47.696;11.746;2023-01-08T10:59:19;2.90;;;1.65;;
71869;SDS011;59739;47.696;11.746;2023-01-08T11:01:47;2.03;;;1.10;;
71869;SDS011;59739;47.696;11.746;2023-01-08T11:04:23;2.85;;;1.00;;
71869;SDS011;59739;47.696;11.746;2023-01-08T11:06:59;1.40;;;1.10;;
71869;SDS011;59739;47.696;11.746;2023-01-08T11:09:31;1.35;;;1.05;;
71869;SDS011;59739;47.696;11.746;2023-01-08T11:17:41;1.42;;;0.90;;
71869;SDS011;59739;47.696;11.746;2023-01-08T11:20:09;1.58;;;1.20;;
71869;SDS011;59739;47.696;11.746;2023-01-08T11:25:47;1.75;;;1.38;;
71869;SDS011;59739;47.696;11.746;2023-01-08T11:28:49;2.42;;;1.58;;
71869;SDS011;59739;47.696;11.746;2023-01-08T11:34:30;1.75;;;1.20;;
71869;SDS011;59739;47.696;11.746;2023-01-08T11:37:20;2.17;;;1.30;;
71869;SDS011;59739;47.696;11.746;2023-01-08T11:39:50;3.50;;;1.40;;
71869;SDS011;59739;47.696;11.746;2023-01-08T11:45:32;1.95;;;1.30;;
71869;SDS011;59739;47.696;11.746;2023-01-08T11:48:43;1.73;;;1.45;;
71869;SDS011;59739;47.696;11.746;2023-01-08T11:57:56;5.18;;;1.88;;
71869;SDS011;59739;47.696;11.746;2023-01-08T12:04:04;4.70;;;1.70;;
71869;SDS011;59739;47.696;11.746;2023-01-08T12:06:53;2.88;;;1.58;;
71869;SDS011;59739;47.696;11.746;2023-01-08T12:09:43;3.00;;;1.77;;
71869;SDS011;59739;47.696;11.746;2023-01-08T12:21:31;3.60;;;2.10;;
71869;SDS011;59739;47.696;11.746;2023-01-08T12:27:09;4.53;;;2.40;;
71869;SDS011;59739;47.696;11.746;2023-01-08T12:32:55;2.83;;;2.33;;
71869;SDS011;59739;47.696;11.746;2023-01-08T12:35:35;3.33;;;1.73;;
71869;SDS011;59739;47.696;11.746;2023-01-08T12:38:19;4.63;;;1.77;;
71869;SDS011;59739;47.696;11.746;2023-01-08T12:41:02;3.22;;;1.52;;
71869;SDS011;59739;47.696;11.746;2023-01-08T12:46:07;2.65;;;1.55;;
71869;SDS011;59739;47.696;11.746;2023-01-08T12:48:41;2.88;;;1.80;;
71869;SDS011;59739;47.696;11.746;2023-01-08T12:51:23;3.28;;;2.15;;
71869;SDS011;59739;47.696;11.746;2023-01-08T12:54:15;2.90;;;2.20;;
71869;SDS011;59739;47.696;11.746;2023-01-08T12:59:53;3.90;;;2.67;;
71869;SDS011;59739;47.696;11.746;2023-01-08T13:07:46;20.15;;;6.72;;
71869;SDS011;59739;47.696;11.746;2023-01-08T13:12:59;11.25;;;5.78;;
71869;SDS011;59739;47.696;11.746;2023-01-08T13:15:29;7.22;;;2.72;;
71869;SDS011;59739;47.696;11.746;2023-01-08T13:18:06;5.65;;;2.80;;
71869;SDS011;59739;47.696;11.746;2023-01-08T13:20:42;3.28;;;2.10;;
71869;SDS011;59739;47.696;11.746;2023-01-08T13:23:23;2.72;;;1.90;;
71869;SDS011;59739;47.696;11.746;2023-01-08T13:25:52;1.73;;;1.15;;
71869;SDS011;59739;47.696;11.746;2023-01-08T13:33:46;3.40;;;2.53;;
71869;SDS011;59739;47.696;11.746;2023-01-08T13:41:39;2.70;;;2.30;;
71869;SDS011;59739;47.696;11.746;2023-01-08T13:47:00;4.43;;;2.50;;
71869;SDS011;59739;47.696;11.746;2023-01-08T13:49:42;3.47;;;2.58;;
71869;SDS011;59739;47.696;11.746;2023-01-08T13:52:25;3.15;;;2.00;;
71869;SDS011;59739;47.696;11.746;2023-01-08T13:55:13;3.50;;;2.33;;
71869;SDS011;59739;47.696;11.746;2023-01-08T13:57:52;3.33;;;2.17;;
71869;SDS011;59739;47.696;11.746;2023-01-08T14:00:28;2.92;;;1.92;;
71869;SDS011;59739;47.696;11.746;2023-01-08T14:03:13;3.97;;;3.00;;
71869;SDS011;59739;47.696;11.746;2023-01-08T14:06:05;3.63;;;2.38;;
71869;SDS011;59739;47.696;11.746;2023-01-08T14:08:49;3.45;;;2.50;;
71869;SDS011;59739;47.696;11.746;2023-01-08T14:11:28;3.80;;;2.70;;
71869;SDS011;59739;47.696;11.746;2023-01-08T14:14:08;3.88;;;2.65;;
71869;SDS011;59739;47.696;11.746;2023-01-08T14:16:42;4.30;;;2.47;;
71869;SDS011;59739;47.696;11.746;2023-01-08T14:19:10;4.70;;;2.60;;
71869;SDS011;59739;47.696;11.746;2023-01-08T14:21:51;4.30;;;2.55;;
71869;SDS011;59739;47.696;11.746;2023-01-08T14:24:19;3.38;;;1.80;;
71869;SDS011;59739;47.696;11.746;2023-01-08T14:26:51;4.45;;;1.73;;
71869;SDS011;59739;47.696;11.746;2023-01-08T14:29:26;2.85;;;1.60;;
71869;SDS011;59739;47.696;11.746;2023-01-08T14:31:55;1.40;;;1.20;;
71869;SDS011;59739;47.696;11.746;2023-01-08T14:34:24;1.65;;;1.27;;
71869;SDS011;59739;47.696;11.746;2023-01-08T14:36:54;2.85;;;1.30;;
71869;SDS011;59739;47.696;11.746;2023-01-08T14:39:21;1.83;;;1.30;;
71869;SDS011;59739;47.696;11.746;2023-01-08T14:42:08;1.85;;;1.58;;
71869;SDS011;59739;47.696;11.746;2023-01-08T14:47:52;18.35;;;10.25;;
71869;SDS011;59739;47.696;11.746;2023-01-08T14:50:28;25.67;;;14.35;;
71869;SDS011;59739;47.696;11.746;2023-01-08T14:53:04;6.07;;;3.40;;
71869;SDS011;59739;47.696;11.746;2023-01-08T14:55:47;2.55;;;2.10;;
71869;SDS011;59739;47.696;11.746;2023-01-08T14:58:15;3.80;;;2.70;;
71869;SDS011;59739;47.696;11.746;2023-01-08T15:00:49;3.58;;;2.75;;
71869;SDS011;59739;47.696;11.746;2023-01-08T15:03:30;4.55;;;3.13;;
71869;SDS011;59739;47.696;11.746;2023-01-08T15:06:03;4.50;;;2.95;;
71869;SDS011;59739;47.696;11.746;2023-01-08T15:08:32;5.47;;;3.97;;
71869;SDS011;59739;47.696;11.746;2023-01-08T15:11:09;5.60;;;4.80;;
71869;SDS011;59739;47.696;11.746;2023-01-08T15:13:48;6.80;;;4.82;;
71869;SDS011;59739;47.696;11.746;2023-01-08T15:16:27;6.97;;;5.53;;
71869;SDS011;59739;47.696;11.746;2023-01-08T15:21:46;14.10;;;9.40;;
71869;SDS011;59739;47.696;11.746;2023-01-08T15:24:24;12.43;;;8.57;;
71869;SDS011;59739;47.696;11.746;2023-01-08T15:26:58;14.13;;;8.65;;
71869;SDS011;59739;47.696;11.746;2023-01-08T15:29:34;11.43;;;8.02;;
71869;SDS011;59739;47.696;11.746;2023-01-08T15:32:18;9.43;;;6.88;;
71869;SDS011;59739;47.696;11.746;2023-01-08T15:34:47;9.23;;;6.43;;
71869;SDS011;59739;47.696;11.746;2023-01-08T15:37:13;8.55;;;6.13;;
71869;SDS011;59739;47.696;11.746;2023-01-08T15:39:41;8.15;;;5.65;;
71869;SDS011;59739;47.696;11.746;2023-01-08T15:42:17;9.05;;;6.18;;
71869;SDS011;59739;47.696;11.746;2023-01-08T15:45:04;8.10;;;5.50;;
71869;SDS011;59739;47.696;11.746;2023-01-08T15:47:38;7.82;;;5.75;;
71869;SDS011;59739;47.696;11.746;2023-01-08T15:50:05;8.55;;;6.00;;
71869;SDS011;59739;47.696;11.746;2023-01-08T15:52:31;7.75;;;5.55;;
71869;SDS011;59739;47.696;11.746;2023-01-08T15:54:58;10.02;;;6.10;;
71869;SDS011;59739;47.696;11.746;2023-01-08T15:57:25;10.82;;;7.40;;
71869;SDS011;59739;47.696;11.746;2023-01-08T15:59:54;9.68;;;6.82;;
71869;SDS011;59739;47.696;11.746;2023-01-08T16:02:20;7.90;;;5.93;;
71869;SDS011;59739;47.696;11.746;2023-01-08T16:04:53;16.02;;;10.57;;
71869;SDS011;59739;47.696;11.746;2023-01-08T16:07:20;12.98;;;8.93;;
71869;SDS011;59739;47.696;11.746;2023-01-08T16:09:47;12.63;;;7.50;;
71869;SDS011;59739;47.696;11.746;2023-01-08T16:12:13;14.02;;;7.35;;
71869;SDS011;59739;47.696;11.746;2023-01-08T16:14:39;20.02;;;11.55;;
71869;SDS011;59739;47.696;11.746;2023-01-08T16:17:06;11.02;;;6.30;;
71869;SDS011;59739;47.696;11.746;2023-01-08T16:19:32;11.82;;;8.07;;
71869;SDS011;59739;47.696;11.746;2023-01-08T16:21:58;21.17;;;11.10;;
71869;SDS011;59739;47.696;11.746;2023-01-08T16:24:24;16.67;;;10.57;;
71869;SDS011;59739;47.696;11.746;2023-01-08T16:26:51;18.05;;;10.40;;
71869;SDS011;59739;47.696;11.746;2023-01-08T16:29:16;38.15;;;21.42;;
71869;SDS011;59739;47.696;11.746;2023-01-08T16:31:43;32.50;;;17.13;;
71869;SDS011;59739;47.696;11.746;2023-01-08T16:34:11;40.42;;;22.23;;
71869;SDS011;59739;47.696;11.746;2023-01-08T16:36:38;33.58;;;18.83;;
71869;SDS011;59739;47.696;11.746;2023-01-08T16:39:04;27.85;;;15.57;;